OMDBOMSJ

Guest
Details From OMDB - DUBAI INTL
To OMSJ - SHARJAH INTL
Flight Number -
Tags generated
Created
Modified
Stats Distance 10 nm / 18 km
Max Altitude 0 ft / 0 m
Waypoints 3
Social Downloads 2
Likes 0
Share VATSIM

Download

Looking for another format? Having issues loading an existing format? Contact us
Advertisement - Login to hide

Notes

Basic altitude profile: - Ascent Rate: 2500ft/min - Ascent Speed: 250kts - Cruise Altitude: 35000ft - Cruise Speed: 420kts - Descent Rate: 1500ft/min - Descent Speed: 250kts Options: - Use NATs: no - Use PACOTS: no - Use low airways: yes - Use high airways: yes

Route

OMDB SHJ OMSJ

ID Type Via Altitude Latitude Longitude Leg Dist Tot Dist Heading (true) Name
O OMDB APT - 0 ft / 0 m 25.25491˚ 55.36426˚ - 0 nm - DUBAI INTL
SHJ VOR - 0 ft / 0 m 25.33016˚ 55.52043˚ 9 nm 9 nm 62° / 62° SHARJAH VOR-DME
O OMSJ APT - 0 ft / 0 m 25.32859˚ 55.51722˚ 0 nm 9 nm 242° / 242° SHARJAH INTL

Altitude Profile

Advertisement - Login to hide

OMDB

Details ICAO OMDB (DXB)
Name DUBAI INTL
Region United Arab Emirates
Timezone Asia/Dubai (UTC+4.0)
Stats Elevation 62 ft / 19 m (AMSL)
Location 25.254912° 55.364260°
Runways 2
Magnetic Variation 2.047° E

METAR

OMDB 180500Z 16004KT 130V220 9999 FEW035 18/13 Q1022 NOSIG

Decode

TAF

TAF OMDB 172301Z 1800/1906 13009KT CAVOK PROB30 TEMPO 1806/1813 VRB15G25KT 3000 SHRA SCT040TCU BECMG 1808/1810 30012KT BECMG 1818/1820 14005KT

Decode

Departure Runways

ID Width Length Bearing (true) Bearing (mag) Surface Threshold Offset Overrun Length
12L 197 ft / 60 m 13,124 ft / 4,000 m 121.49° 119.44° Asphalt 1,312 ft / 400 m 395 ft / 120 m
12R 151 ft / 46 m 13,139 ft / 4,005 m 121.48° 119.43° Asphalt 394 ft / 120 m 197 ft / 60 m
30L 151 ft / 46 m 13,139 ft / 4,005 m 301.50° 299.45° Asphalt 2,953 ft / 900 m 197 ft / 60 m
30R 197 ft / 60 m 13,124 ft / 4,000 m 301.51° 299.46° Asphalt 0 ft / 0 m 395 ft / 120 m

OMSJ

Details ICAO OMSJ (SHJ)
Name SHARJAH INTL
Region United Arab Emirates
Timezone Asia/Dubai (UTC+4.0)
Stats Elevation 111 ft / 34 m (AMSL)
Location 25.328587° 55.517218°
Runways 1
Magnetic Variation 2.045° E

METAR

OMSJ 180500Z 14002KT 9999 FEW040 19/14 Q1022

Decode

TAF

TAF OMSJ 172301Z 1800/1906 13009KT CAVOK PROB30 TEMPO 1806/1813 VRB15G25KT 3000 SHRA SCT040TCU BECMG 1808/1810 33012KT BECMG 1816/1818 13005KT

Decode

Destination Runways

ID Width Length Bearing (true) Bearing (mag) Surface Threshold Offset Overrun Length
12 148 ft / 45 m 13,266 ft / 4,043 m 122.45° 120.41° Asphalt 689 ft / 210 m 488 ft / 149 m
30 148 ft / 45 m 13,266 ft / 4,043 m 302.47° 300.43° Asphalt 984 ft / 300 m 488 ft / 149 m

Approach Navaids

Runway Type Ident Frequency Range Bearing (true) Bearing (mag) Slope Elevation
30 Localiser ISJ 109.70 MHz 18 nm / 33 km 302.45° 300.40° - 111 ft / 34 m (AMSL)
30 Glidescope ISJ 109.70 MHz 10 nm / 19 km 302.46° 300.42° 3.00° 111 ft / 34 m (AMSL)

Popular Alternatives